WHSE22 YBTL-YBTL
Flight info
| Callsign | WHSE22 |
|---|---|
| Flight time | 0h 2m |
| Altitude | 2500 |
| Route | YBTL DCT 191630S1464940E DCT 192711S1472850E DCT YBTL |
| Aircraft | H47/M-SDFGRWL1J7/S |
Departure
| Time | 2026-04-16 02:38 |
|---|---|
| Airport | Townsville Airport / RAAF Base Townsville (YBTL) |
Arrival
| Time | 2026-04-16 02:40 |
|---|---|
| Airport | Townsville Airport / RAAF Base Townsville (YBTL) |
| Time | Latitude | Longitude | Altitude | Speed | Heading |
|---|---|---|---|---|---|
| 2026-04-16 02:27 | -19.25767 | 146.75882 | 15 ft | 0 kts | 99° |
| 2026-04-16 02:31 | -19.25768 | 146.75891 | 15 ft | 2 kts | 93° |
| 2026-04-16 02:31 | -19.25761 | 146.75914 | 15 ft | 4 kts | 27° |
| 2026-04-16 02:31 | -19.25735 | 146.75916 | 15 ft | 4 kts | 359° |
| 2026-04-16 02:32 | -19.25706 | 146.75917 | 15 ft | 5 kts | 2° |
| 2026-04-16 02:32 | -19.25697 | 146.75917 | 15 ft | 0 kts | 4° |
| 2026-04-16 02:37 | -19.25686 | 146.75919 | 29 ft | 2 kts | 14° |
| 2026-04-16 02:37 | -19.25670 | 146.75936 | 42 ft | 10 kts | 60° |
| 2026-04-16 02:38 | -19.25711 | 146.76068 | 86 ft | 30 kts | 120° |
| 2026-04-16 02:38 | -19.25812 | 146.76362 | 258 ft | 59 kts | 115° |
| 2026-04-16 02:38 | -19.26075 | 146.76877 | 621 ft | 96 kts | 115° |
| 2026-04-16 02:38 | -19.26471 | 146.77531 | 788 ft | 111 kts | 120° |
| 2026-04-16 02:39 | -19.26851 | 146.78259 | 801 ft | 114 kts | 115° |
| 2026-04-16 02:39 | -19.27239 | 146.78990 | 832 ft | 112 kts | 118° |
| 2026-04-16 02:39 | -19.27652 | 146.79665 | 843 ft | 107 kts | 120° |
| 2026-04-16 02:39 | -19.27972 | 146.80374 | 709 ft | 106 kts | 105° |
| 2026-04-16 02:40 | -19.28030 | 146.81105 | 609 ft | 93 kts | 86° |
| 2026-04-16 02:40 | -19.27841 | 146.81660 | 620 ft | 72 kts | 64° |
| 2026-04-16 02:40 | -19.27569 | 146.82009 | 577 ft | 48 kts | 68° |
| 2026-04-16 02:40 | -19.27621 | 146.82326 | 452 ft | 42 kts | 91° |
| 2026-04-16 02:41 | -19.27618 | 146.82583 | 299 ft | 26 kts | 89° |
| 2026-04-16 02:41 | -19.27562 | 146.82672 | 140 ft | 7 kts | 84° |
| 2026-04-16 02:41 | -19.27521 | 146.82725 | 109 ft | 7 kts | 83° |
| 2026-04-16 02:41 | -19.27507 | 146.82753 | 58 ft | 6 kts | 84° |
| 2026-04-16 02:42 | -19.27503 | 146.82764 | 29 ft | 2 kts | 84° |
| 2026-04-16 02:42 | -19.27500 | 146.82766 | 24 ft | 0 kts | 83° |
| 2026-04-16 02:42 | -19.27501 | 146.82767 | 14 ft | 0 kts | 83° |
| 2026-04-16 02:47 | -19.27500 | 146.82768 | 14 ft | 0 kts | 83° |
| 2026-04-16 02:47 | -19.27500 | 146.82765 | 24 ft | 0 kts | 82° |
| 2026-04-16 02:47 | -19.27485 | 146.82766 | 30 ft | 2 kts | 80° |
| 2026-04-16 02:48 | -19.27479 | 146.82769 | 34 ft | 0 kts | 78° |
| 2026-04-16 02:48 | -19.27475 | 146.82772 | 29 ft | 1 kts | 76° |
| 2026-04-16 02:48 | -19.27474 | 146.82773 | 27 ft | 1 kts | 75° |
| 2026-04-16 02:48 | -19.27473 | 146.82778 | 29 ft | 4 kts | 72° |
| 2026-04-16 02:49 | -19.27475 | 146.82771 | 37 ft | 2 kts | 71° |
| 2026-04-16 02:49 | -19.27475 | 146.82785 | 72 ft | 1 kts | 76° |
| 2026-04-16 02:49 | -19.27500 | 146.82961 | 222 ft | 52 kts | 93° |
| 2026-04-16 02:49 | -19.27708 | 146.83438 | 649 ft | 85 kts | 113° |
| 2026-04-16 02:50 | -19.28009 | 146.83989 | 1116 ft | 86 kts | 117° |
| 2026-04-16 02:50 | -19.28387 | 146.84496 | 1480 ft | 93 kts | 124° |
| 2026-04-16 02:50 | -19.28803 | 146.85074 | 1436 ft | 103 kts | 124° |
| 2026-04-16 02:50 | -19.29228 | 146.85647 | 1401 ft | 93 kts | 122° |
| 2026-04-16 02:51 | -19.29523 | 146.86213 | 1435 ft | 85 kts | 112° |
| 2026-04-16 02:51 | -19.29763 | 146.86765 | 1505 ft | 83 kts | 111° |
| 2026-04-16 02:51 | -19.30005 | 146.87309 | 1596 ft | 80 kts | 111° |
| 2026-04-16 02:51 | -19.30093 | 146.87857 | 1697 ft | 78 kts | 91° |
| 2026-04-16 02:52 | -19.30071 | 146.88459 | 1679 ft | 89 kts | 93° |
| 2026-04-16 02:52 | -19.30214 | 146.89110 | 1662 ft | 88 kts | 102° |
| 2026-04-16 02:52 | -19.30428 | 146.89738 | 1655 ft | 95 kts | 109° |
| 2026-04-16 02:52 | -19.30740 | 146.90376 | 1660 ft | 101 kts | 111° |
| 2026-04-16 02:53 | -19.31085 | 146.91030 | 1692 ft | 98 kts | 115° |
| 2026-04-16 02:53 | -19.31335 | 146.91642 | 1842 ft | 87 kts | 109° |
| 2026-04-16 02:53 | -19.31486 | 146.92033 | 1883 ft | 84 kts | 109° |
| 2026-04-16 02:53 | -19.31704 | 146.92627 | 1922 ft | 93 kts | 109° |
| 2026-04-16 02:54 | -19.31938 | 146.93266 | 1953 ft | 92 kts | 108° |
| 2026-04-16 02:54 | -19.32162 | 146.93929 | 1892 ft | 101 kts | 108° |
| 2026-04-16 02:54 | -19.32416 | 146.94617 | 1829 ft | 95 kts | 108° |
| 2026-04-16 02:54 | -19.32673 | 146.95212 | 2007 ft | 87 kts | 111° |
| 2026-04-16 02:55 | -19.32947 | 146.95832 | 2004 ft | 101 kts | 111° |
| 2026-04-16 02:55 | -19.33217 | 146.96516 | 1819 ft | 95 kts | 110° |
| 2026-04-16 02:55 | -19.33458 | 146.97084 | 1887 ft | 75 kts | 110° |
| 2026-04-16 02:55 | -19.33673 | 146.97551 | 1968 ft | 70 kts | 111° |
| 2026-04-16 02:56 | -19.33929 | 146.98032 | 1904 ft | 80 kts | 115° |
| 2026-04-16 02:56 | -19.34208 | 146.98582 | 1769 ft | 88 kts | 114° |
| 2026-04-16 02:56 | -19.34490 | 146.99150 | 1654 ft | 86 kts | 115° |
| 2026-04-16 02:56 | -19.34755 | 146.99702 | 1579 ft | 82 kts | 110° |
| 2026-04-16 02:57 | -19.34929 | 147.00259 | 1513 ft | 78 kts | 105° |
| 2026-04-16 02:57 | -19.35101 | 147.00780 | 1527 ft | 71 kts | 106° |
| 2026-04-16 02:57 | -19.35266 | 147.01281 | 1513 ft | 76 kts | 105° |
| 2026-04-16 02:57 | -19.35436 | 147.01864 | 1343 ft | 90 kts | 104° |
| 2026-04-16 02:58 | -19.35611 | 147.02526 | 1096 ft | 92 kts | 103° |
| 2026-04-16 02:58 | -19.35760 | 147.03121 | 1100 ft | 77 kts | 102° |
| 2026-04-16 02:58 | -19.35891 | 147.03661 | 1097 ft | 75 kts | 102° |
| 2026-04-16 02:58 | -19.36003 | 147.04191 | 1097 ft | 75 kts | 98° |
| 2026-04-16 02:59 | -19.36129 | 147.04749 | 1057 ft | 82 kts | 102° |
| 2026-04-16 02:59 | -19.36324 | 147.05322 | 977 ft | 79 kts | 108° |
| 2026-04-16 02:59 | -19.36482 | 147.05842 | 1029 ft | 70 kts | 103° |
| 2026-04-16 02:59 | -19.36591 | 147.06305 | 1096 ft | 60 kts | 101° |
| 2026-04-16 03:00 | -19.36738 | 147.06737 | 1100 ft | 67 kts | 107° |
| 2026-04-16 03:00 | -19.36902 | 147.07239 | 1015 ft | 76 kts | 105° |
| 2026-04-16 03:00 | -19.37106 | 147.07752 | 1001 ft | 75 kts | 111° |
| 2026-04-16 03:00 | -19.37392 | 147.08225 | 976 ft | 80 kts | 118° |
| 2026-04-16 03:01 | -19.37729 | 147.08719 | 893 ft | 82 kts | 119° |
| 2026-04-16 03:01 | -19.37968 | 147.09220 | 960 ft | 72 kts | 110° |
| 2026-04-16 03:01 | -19.38156 | 147.09734 | 934 ft | 81 kts | 105° |
| 2026-04-16 03:01 | -19.38290 | 147.10336 | 847 ft | 80 kts | 102° |
| 2026-04-16 03:02 | -19.38436 | 147.10840 | 996 ft | 61 kts | 104° |
| 2026-04-16 03:02 | -19.38537 | 147.11168 | 1194 ft | 31 kts | 104° |
| 2026-04-16 03:02 | -19.38566 | 147.11253 | 1141 ft | 7 kts | 100° |
| 2026-04-16 03:02 | -19.38634 | 147.11233 | 816 ft | 29 kts | 98° |
| 2026-04-16 03:03 | -19.38815 | 147.11565 | 885 ft | 67 kts | 110° |
| 2026-04-16 03:03 | -19.39019 | 147.12021 | 1235 ft | 71 kts | 113° |
| 2026-04-16 03:03 | -19.39350 | 147.12473 | 1531 ft | 84 kts | 125° |
| 2026-04-16 03:03 | -19.39695 | 147.12992 | 1706 ft | 91 kts | 117° |
| 2026-04-16 03:04 | -19.39984 | 147.13624 | 1766 ft | 97 kts | 111° |
| 2026-04-16 03:04 | -19.40219 | 147.14308 | 1806 ft | 100 kts | 107° |
| 2026-04-16 03:04 | -19.40421 | 147.15006 | 1884 ft | 98 kts | 105° |
| 2026-04-16 03:04 | -19.40592 | 147.15699 | 1993 ft | 97 kts | 102° |
| 2026-04-16 03:05 | -19.40718 | 147.16385 | 2095 ft | 93 kts | 100° |
| 2026-04-16 03:05 | -19.40853 | 147.17058 | 2174 ft | 94 kts | 102° |
| 2026-04-16 03:05 | -19.41017 | 147.17736 | 2245 ft | 96 kts | 104° |
| 2026-04-16 03:05 | -19.41196 | 147.18421 | 2304 ft | 97 kts | 103° |
| 2026-04-16 03:06 | -19.41385 | 147.19098 | 2366 ft | 95 kts | 104° |
| 2026-04-16 03:06 | -19.41587 | 147.19763 | 2131 ft | 97 kts | 105° |
| 2026-04-16 03:06 | -19.41931 | 147.21052 | 1911 ft | 86 kts | 103° |
| 2026-04-16 03:07 | -19.42124 | 147.21649 | 1824 ft | 86 kts | 105° |
| 2026-04-16 03:07 | -19.42324 | 147.22250 | 1673 ft | 87 kts | 107° |
| 2026-04-16 03:07 | -19.42535 | 147.22854 | 1562 ft | 89 kts | 107° |
| 2026-04-16 03:07 | -19.42730 | 147.23495 | 1417 ft | 93 kts | 105° |
| 2026-04-16 03:08 | -19.42896 | 147.24148 | 1300 ft | 88 kts | 105° |
| 2026-04-16 03:08 | -19.43060 | 147.24737 | 1320 ft | 79 kts | 106° |
| 2026-04-16 03:08 | -19.43233 | 147.25258 | 1415 ft | 72 kts | 109° |
| 2026-04-16 03:08 | -19.43384 | 147.25766 | 1515 ft | 73 kts | 107° |
| 2026-04-16 03:09 | -19.43500 | 147.26312 | 1545 ft | 79 kts | 102° |
| 2026-04-16 03:09 | -19.43592 | 147.26918 | 1456 ft | 86 kts | 99° |
| 2026-04-16 03:09 | -19.43726 | 147.27549 | 1332 ft | 88 kts | 101° |
| 2026-04-16 03:09 | -19.43855 | 147.28186 | 1240 ft | 88 kts | 101° |
| 2026-04-16 03:10 | -19.43972 | 147.28814 | 1188 ft | 85 kts | 101° |
| 2026-04-16 03:10 | -19.44092 | 147.29406 | 1183 ft | 81 kts | 102° |
| 2026-04-16 03:10 | -19.44226 | 147.29974 | 1194 ft | 80 kts | 102° |
| 2026-04-16 03:10 | -19.44328 | 147.30570 | 1118 ft | 84 kts | 101° |
| 2026-04-16 03:11 | -19.44385 | 147.31196 | 1036 ft | 86 kts | 97° |
| 2026-04-16 03:11 | -19.44412 | 147.31826 | 967 ft | 84 kts | 95° |
| 2026-04-16 03:11 | -19.44465 | 147.32426 | 927 ft | 79 kts | 97° |
| 2026-04-16 03:11 | -19.44481 | 147.33010 | 896 ft | 82 kts | 94° |
| 2026-04-16 03:12 | -19.44529 | 147.33614 | 818 ft | 80 kts | 95° |
| 2026-04-16 03:12 | -19.44595 | 147.34170 | 868 ft | 74 kts | 95° |
| 2026-04-16 03:12 | -19.44657 | 147.34726 | 862 ft | 80 kts | 95° |
| 2026-04-16 03:12 | -19.44713 | 147.35343 | 801 ft | 86 kts | 95° |
| 2026-04-16 03:13 | -19.44776 | 147.35966 | 784 ft | 84 kts | 96° |
| 2026-04-16 03:13 | -19.44833 | 147.36578 | 782 ft | 82 kts | 98° |
| 2026-04-16 03:13 | -19.44888 | 147.37174 | 806 ft | 80 kts | 97° |
| 2026-04-16 03:13 | -19.44940 | 147.37775 | 787 ft | 86 kts | 97° |
| 2026-04-16 03:14 | -19.44974 | 147.38454 | 596 ft | 95 kts | 96° |
| 2026-04-16 03:14 | -19.45010 | 147.39121 | 579 ft | 87 kts | 94° |
| 2026-04-16 03:14 | -19.45045 | 147.39778 | 556 ft | 90 kts | 94° |
| 2026-04-16 03:14 | -19.45083 | 147.40422 | 561 ft | 85 kts | 93° |
| 2026-04-16 03:15 | -19.45101 | 147.41041 | 566 ft | 84 kts | 95° |
| 2026-04-16 03:15 | -19.45133 | 147.41668 | 656 ft | 87 kts | 97° |
| 2026-04-16 03:15 | -19.45206 | 147.42339 | 822 ft | 95 kts | 99° |
| 2026-04-16 03:15 | -19.45295 | 147.43027 | 977 ft | 98 kts | 97° |
| 2026-04-16 03:16 | -19.45350 | 147.43790 | 1045 ft | 108 kts | 94° |
| 2026-04-16 03:16 | -19.45379 | 147.44532 | 1072 ft | 91 kts | 93° |
| 2026-04-16 03:16 | -19.45344 | 147.45156 | 1212 ft | 83 kts | 87° |
| 2026-04-16 03:16 | -19.45229 | 147.45785 | 1081 ft | 91 kts | 81° |
| 2026-04-16 03:17 | -19.45064 | 147.46453 | 881 ft | 93 kts | 76° |
| 2026-04-16 03:17 | -19.44924 | 147.47046 | 804 ft | 72 kts | 81° |
| 2026-04-16 03:17 | -19.44915 | 147.47512 | 764 ft | 58 kts | 93° |
| 2026-04-16 03:17 | -19.45048 | 147.47910 | 716 ft | 54 kts | 107° |
| 2026-04-16 03:18 | -19.45229 | 147.48197 | 633 ft | 38 kts | 116° |
| 2026-04-16 03:18 | -19.45431 | 147.48260 | 442 ft | 27 kts | 124° |
| 2026-04-16 03:18 | -19.45570 | 147.48166 | 276 ft | 25 kts | 125° |
| 2026-04-16 03:18 | -19.45681 | 147.48033 | 202 ft | 21 kts | 123° |
| 2026-04-16 03:19 | -19.45751 | 147.47988 | 149 ft | 10 kts | 122° |
| 2026-04-16 03:19 | -19.45740 | 147.48034 | 97 ft | 3 kts | 115° |
| 2026-04-16 03:19 | -19.45745 | 147.48038 | 59 ft | 3 kts | 112° |
| 2026-04-16 03:19 | -19.45746 | 147.48044 | 28 ft | 1 kts | 110° |
| 2026-04-16 03:20 | -19.45737 | 147.48049 | 25 ft | 6 kts | 105° |
| 2026-04-16 03:20 | -19.45725 | 147.48059 | 13 ft | 2 kts | 101° |
| 2026-04-16 03:20 | -19.45725 | 147.48058 | 12 ft | 0 kts | 101° |
| 2026-04-16 03:34 | -19.44094 | 147.47788 | 316 ft | 171 kts | 300° |
| 2026-04-16 03:34 | -19.44088 | 147.46545 | 515 ft | 166 kts | 263° |
| 2026-04-16 03:34 | -19.43987 | 147.45301 | 668 ft | 173 kts | 281° |
| 2026-04-16 03:34 | -19.43781 | 147.44023 | 857 ft | 178 kts | 278° |
| 2026-04-16 03:35 | -19.43603 | 147.42694 | 932 ft | 187 kts | 279° |
| 2026-04-16 03:35 | -19.43307 | 147.41333 | 842 ft | 190 kts | 284° |
| 2026-04-16 03:35 | -19.42934 | 147.39997 | 852 ft | 187 kts | 287° |
| 2026-04-16 03:35 | -19.42512 | 147.38694 | 805 ft | 193 kts | 289° |
| 2026-04-16 03:36 | -19.42075 | 147.37347 | 748 ft | 190 kts | 289° |
| 2026-04-16 03:36 | -19.41674 | 147.36043 | 933 ft | 183 kts | 290° |
| 2026-04-16 03:36 | -19.41250 | 147.34788 | 1044 ft | 180 kts | 290° |
| 2026-04-16 03:36 | -19.40953 | 147.33493 | 1036 ft | 182 kts | 282° |
| 2026-04-16 03:37 | -19.40650 | 147.32180 | 988 ft | 184 kts | 285° |
| 2026-04-16 03:37 | -19.40404 | 147.30886 | 1089 ft | 176 kts | 269° |
| 2026-04-16 03:37 | -19.40809 | 147.29603 | 875 ft | 191 kts | 248° |
| 2026-04-16 03:37 | -19.40833 | 147.28195 | 457 ft | 192 kts | 275° |
| 2026-04-16 03:38 | -19.40705 | 147.26885 | 236 ft | 169 kts | 273° |
| 2026-04-16 03:38 | -19.40630 | 147.25706 | 89 ft | 145 kts | 273° |
| 2026-04-16 03:38 | -19.40542 | 147.24641 | 179 ft | 151 kts | 273° |
| 2026-04-16 03:38 | -19.40321 | 147.23600 | 130 ft | 140 kts | 294° |
| 2026-04-16 03:39 | -19.39836 | 147.22629 | 272 ft | 156 kts | 293° |
| 2026-04-16 03:39 | -19.39462 | 147.21538 | 175 ft | 161 kts | 287° |
| 2026-04-16 03:39 | -19.39149 | 147.20409 | 180 ft | 157 kts | 284° |
| 2026-04-16 03:39 | -19.38978 | 147.19663 | 240 ft | 156 kts | 283° |
| 2026-04-16 03:40 | -19.38591 | 147.18163 | 278 ft | 156 kts | 286° |
| 2026-04-16 03:40 | -19.38287 | 147.17078 | 404 ft | 152 kts | 287° |
| 2026-04-16 03:40 | -19.37935 | 147.16008 | 483 ft | 154 kts | 291° |
| 2026-04-16 03:40 | -19.37684 | 147.15314 | 526 ft | 151 kts | 291° |
| 2026-04-16 03:41 | -19.37300 | 147.14249 | 530 ft | 160 kts | 292° |
| 2026-04-16 03:41 | -19.36896 | 147.13152 | 463 ft | 159 kts | 293° |
| 2026-04-16 03:41 | -19.36491 | 147.12101 | 512 ft | 150 kts | 294° |
| 2026-04-16 03:41 | -19.36078 | 147.11120 | 574 ft | 149 kts | 294° |
| 2026-04-16 03:42 | -19.35674 | 147.10089 | 565 ft | 153 kts | 293° |
| 2026-04-16 03:42 | -19.35273 | 147.09057 | 529 ft | 150 kts | 294° |
| 2026-04-16 03:42 | -19.34882 | 147.08048 | 648 ft | 147 kts | 294° |
| 2026-04-16 03:42 | -19.34465 | 147.07067 | 689 ft | 152 kts | 296° |
| 2026-04-16 03:43 | -19.33982 | 147.06077 | 773 ft | 151 kts | 299° |
| 2026-04-16 03:43 | -19.33490 | 147.05070 | 757 ft | 156 kts | 296° |
| 2026-04-16 03:43 | -19.33089 | 147.04004 | 698 ft | 157 kts | 290° |
| 2026-04-16 03:43 | -19.32784 | 147.02892 | 661 ft | 158 kts | 285° |
| 2026-04-16 03:44 | -19.32529 | 147.01758 | 561 ft | 160 kts | 283° |
| 2026-04-16 03:44 | -19.32220 | 147.00622 | 476 ft | 161 kts | 288° |
| 2026-04-16 03:44 | -19.31907 | 146.99487 | 448 ft | 162 kts | 285° |
| 2026-04-16 03:44 | -19.31731 | 146.98275 | 297 ft | 165 kts | 276° |
| 2026-04-16 03:45 | -19.31412 | 146.97122 | 242 ft | 165 kts | 289° |
| 2026-04-16 03:45 | -19.31103 | 146.95947 | 156 ft | 163 kts | 283° |
| 2026-04-16 03:45 | -19.30877 | 146.94795 | 214 ft | 160 kts | 279° |
| 2026-04-16 03:45 | -19.30734 | 146.93641 | 284 ft | 154 kts | 276° |
| 2026-04-16 03:46 | -19.30606 | 146.92497 | 390 ft | 160 kts | 276° |
| 2026-04-16 03:46 | -19.30387 | 146.91318 | 337 ft | 163 kts | 284° |
| 2026-04-16 03:46 | -19.30093 | 146.90165 | 335 ft | 162 kts | 284° |
| 2026-04-16 03:46 | -19.29781 | 146.89012 | 355 ft | 162 kts | 288° |
| 2026-04-16 03:47 | -19.29439 | 146.87884 | 377 ft | 165 kts | 290° |
| 2026-04-16 03:47 | -19.29059 | 146.86707 | 374 ft | 168 kts | 289° |
| 2026-04-16 03:47 | -19.28726 | 146.85549 | 365 ft | 164 kts | 285° |
| 2026-04-16 03:47 | -19.28468 | 146.84377 | 417 ft | 166 kts | 283° |
| 2026-04-16 03:48 | -19.28199 | 146.83155 | 383 ft | 173 kts | 283° |
| 2026-04-16 03:48 | -19.27884 | 146.81944 | 365 ft | 168 kts | 286° |
| 2026-04-16 03:48 | -19.27598 | 146.80751 | 372 ft | 163 kts | 282° |
| 2026-04-16 03:48 | -19.27356 | 146.79570 | 443 ft | 165 kts | 284° |
| 2026-04-16 03:49 | -19.27033 | 146.78429 | 437 ft | 157 kts | 291° |
| 2026-04-16 03:49 | -19.26466 | 146.77564 | 441 ft | 130 kts | 317° |
| 2026-04-16 03:49 | -19.25869 | 146.77044 | 376 ft | 89 kts | 329° |
| 2026-04-16 03:49 | -19.25410 | 146.76862 | 288 ft | 52 kts | 344° |
| 2026-04-16 03:50 | -19.25254 | 146.76632 | 111 ft | 30 kts | 256° |
| 2026-04-16 03:50 | -19.25298 | 146.76409 | 39 ft | 33 kts | 219° |
| 2026-04-16 03:50 | -19.25382 | 146.76185 | 42 ft | 31 kts | 226° |
| 2026-04-16 03:50 | -19.25449 | 146.75962 | 58 ft | 29 kts | 232° |
| 2026-04-16 03:51 | -19.25497 | 146.75805 | 41 ft | 22 kts | 236° |
| 2026-04-16 03:51 | -19.25529 | 146.75693 | 29 ft | 5 kts | 240° |
| 2026-04-16 03:51 | -19.25538 | 146.75659 | 24 ft | 6 kts | 243° |
| 2026-04-16 03:51 | -19.25560 | 146.75613 | 20 ft | 6 kts | 260° |
| 2026-04-16 03:52 | -19.25564 | 146.75592 | 16 ft | 7 kts | 248° |
| 2026-04-16 03:52 | -19.25617 | 146.75552 | 16 ft | 10 kts | 132° |
| 2026-04-16 03:52 | -19.25651 | 146.75633 | 15 ft | 17 kts | 96° |
| 2026-04-16 03:52 | -19.25669 | 146.75783 | 15 ft | 21 kts | 96° |
| 2026-04-16 03:53 | -19.25683 | 146.75892 | 15 ft | 10 kts | 121° |
| 2026-04-16 03:53 | -19.25733 | 146.75917 | 15 ft | 6 kts | 169° |
| 2026-04-16 03:53 | -19.25765 | 146.75923 | 15 ft | 4 kts | 175° |
| 2026-04-16 03:53 | -19.25793 | 146.75921 | 15 ft | 4 kts | 184° |
| 2026-04-16 03:54 | -19.25807 | 146.75944 | 15 ft | 5 kts | 95° |
| 2026-04-16 03:54 | -19.25809 | 146.75962 | 15 ft | 0 kts | 99° |